< < Back
Terminal Aerodrome Forecast


Current Version              Previous Versions:   1  2  3  4  5  6  7  8  9  

Terminal Aerodrome Forecast

877
FTUS42 KTAE 261120
TAFTLH
TAF
KTLH 261120Z 2612/2712 07007KT P6SM SCT250=

Latest METAR

774
SAUS80 KWBC 271600 RRA
MTRTLH
METAR KTLH 271553Z 08010KT 10SM FEW035 FEW250 31/21 A3003 RMK AO2 SLP169
T03110211


USA.gov is the U.S. government's official web portal to all federal, state and local government web resources and services.